Time;durP1;ratioP1;P1;durP2;ratioP2;P2;SDS_P1;SDS_P2;PMS_P1;PMS_P2;Temp;Humidity;BMP_temperature;BMP_pressure;BME280_temperature;BME280_humidity;BME280_pressure;Samples;Min_cycle;Max_cycle;Signal;HPM_P1;HPM_P2
2022/04/14 00:00:23;;;;;;;7.37;3.00;;;7.90;75.00;;;;;;4861735;29;20189;-64
2022/04/14 00:02:50;;;;;;;8.97;3.63;;;7.80;75.20;;;;;;4861646;29;20529;-64
2022/04/14 00:05:16;;;;;;;8.13;3.37;;;7.80;75.40;;;;;;4861785;29;20217;-66
2022/04/14 00:07:44;;;;;;;15.07;4.10;;;7.80;75.70;;;;;;4861706;29;20291;-64
2022/04/14 00:10:09;;;;;;;10.97;4.20;;;7.70;76.20;;;;;;4861589;29;20225;-64
2022/04/14 00:12:35;;;;;;;12.43;4.67;;;7.60;76.70;;;;;;4861442;29;21191;-65
2022/04/14 00:15:02;;;;;;;9.97;3.83;;;7.50;77.20;;;;;;4845051;29;20196;-64
2022/04/14 00:17:29;;;;;;;9.47;4.23;;;7.40;77.40;;;;;;4861318;29;20264;-65
2022/04/14 00:19:54;;;;;;;11.73;3.87;;;7.40;77.80;;;;;;4878219;29;20184;-64
2022/04/14 00:22:20;;;;;;;12.43;3.63;;;7.30;78.00;;;;;;4879960;29;20184;-64
2022/04/14 00:24:46;;;;;;;10.07;4.67;;;7.30;78.30;;;;;;4879867;29;20215;-65
2022/04/14 00:27:12;;;;;;;14.03;4.63;;;7.30;78.70;;;;;;4879892;29;20604;-65
2022/04/14 00:29:38;;;;;;;11.67;4.57;;;7.20;78.90;;;;;;4879594;29;20214;-65
2022/04/14 00:32:04;;;;;;;11.97;5.30;;;7.30;79.10;;;;;;4879964;29;20221;-65
2022/04/14 00:34:29;;;;;;;13.33;4.93;;;7.20;79.10;;;;;;4879546;29;20188;-65
2022/04/14 00:36:55;;;;;;;15.13;5.07;;;7.20;79.40;;;;;;4880007;29;20629;-65
2022/04/14 00:39:21;;;;;;;12.37;5.23;;;7.10;80.20;;;;;;4877962;29;20751;-65
2022/04/14 00:41:46;;;;;;;15.37;6.20;;;7.10;79.80;;;;;;4879788;29;20196;-65
2022/04/14 00:44:12;;;;;;;12.63;5.70;;;7.10;79.90;;;;;;4879464;29;20271;-65
2022/04/14 00:46:38;;;;;;;11.43;5.63;;;7.00;80.00;;;;;;4879436;29;20618;-65
2022/04/14 00:49:04;;;;;;;9.37;4.87;;;7.00;80.10;;;;;;4879820;29;20193;-65
2022/04/14 00:51:30;;;;;;;13.10;5.20;;;7.00;80.20;;;;;;4879371;29;20178;-65
2022/04/14 00:53:56;;;;;;;18.43;6.60;;;7.00;80.10;;;;;;4879261;29;20203;-65
2022/04/14 00:56:21;;;;;;;12.50;5.27;;;7.00;80.10;;;;;;4879049;29;20272;-64
2022/04/14 00:58:48;;;;;;;11.20;5.13;;;7.00;80.10;;;;;;4879298;29;20223;-65
2022/04/14 01:01:14;;;;;;;9.97;5.13;;;7.00;80.10;;;;;;4879570;29;20183;-64
2022/04/14 01:03:42;;;;;;;14.97;5.50;;;7.00;80.00;;;;;;4879163;29;20564;-65
2022/04/14 01:06:09;;;;;;;17.20;5.40;;;7.00;79.80;;;;;;4879308;29;20181;-65
2022/04/14 01:08:35;;;;;;;10.33;4.73;;;7.10;79.90;;;;;;4874620;29;20542;-65
2022/04/14 01:11:02;;;;;;;18.57;5.70;;;7.10;79.70;;;;;;4860573;29;20597;-64
2022/04/14 01:13:28;;;;;;;13.43;5.40;;;7.10;79.70;;;;;;4859966;29;20188;-65
2022/04/14 01:15:59;;;;;;;11.03;5.10;;;7.10;79.50;;;;;;4859658;29;20245;-64
2022/04/14 01:18:26;;;;;;;15.60;5.90;;;7.10;79.60;;;;;;4865724;29;20176;-64
2022/04/14 01:20:51;;;;;;;11.53;4.87;;;7.10;79.80;;;;;;4879044;29;20255;-64
2022/04/14 01:23:24;;;;;;;12.63;5.00;;;7.00;79.80;;;;;;4879612;29;20277;-64
2022/04/14 01:25:50;;;;;;;12.27;4.83;;;7.00;79.90;;;;;;4879042;29;20176;-64
2022/04/14 01:28:18;;;;;;;11.10;5.40;;;7.00;80.10;;;;;;4879135;29;20254;-64
2022/04/14 01:30:43;;;;;;;10.43;4.77;;;7.00;80.10;;;;;;4860066;29;20611;-65
2022/04/14 01:33:09;;;;;;;17.70;4.60;;;7.00;80.20;;;;;;4860413;29;20221;-64
2022/04/14 01:35:35;;;;;;;13.50;5.10;;;7.10;80.00;;;;;;4859454;29;20658;-64
2022/04/14 01:38:01;;;;;;;10.10;5.07;;;7.10;79.90;;;;;;4874304;29;20232;-64
2022/04/14 01:40:28;;;;;;;13.23;5.47;;;7.20;79.80;;;;;;4860399;29;20582;-64
2022/04/14 01:42:54;;;;;;;15.03;5.27;;;7.20;79.60;;;;;;4860157;29;20181;-65
2022/04/14 01:45:20;;;;;;;12.70;5.23;;;7.20;79.50;;;;;;4859916;29;20713;-65
2022/04/14 01:47:47;;;;;;;13.67;5.37;;;7.20;79.60;;;;;;4860192;29;20195;-64
2022/04/14 01:50:14;;;;;;;13.73;5.23;;;7.20;79.90;;;;;;4860166;29;20244;-64
2022/04/14 01:52:44;;;;;;;12.03;5.87;;;7.20;79.90;;;;;;4859821;29;20223;-64
2022/04/14 01:55:10;;;;;;;12.80;4.97;;;7.20;79.90;;;;;;4859540;29;20269;-65
2022/04/14 01:57:35;;;;;;;11.30;5.13;;;7.30;79.90;;;;;;4860054;29;20216;-64
2022/04/14 02:00:04;;;;;;;15.53;5.70;;;7.30;79.80;;;;;;4859930;29;20622;-64
2022/04/14 02:02:29;;;;;;;11.50;5.60;;;7.30;79.70;;;;;;4859778;29;20217;-66
2022/04/14 02:04:55;;;;;;;17.70;5.47;;;7.30;79.70;;;;;;4859990;29;20232;-64
2022/04/14 02:07:21;;;;;;;16.30;5.30;;;7.30;79.50;;;;;;4859796;29;20185;-65
2022/04/14 02:09:47;;;;;;;11.13;5.47;;;7.30;79.80;;;;;;4859628;29;20181;-64
2022/04/14 02:12:12;;;;;;;12.13;5.27;;;7.30;79.90;;;;;;4859740;29;20181;-64
2022/04/14 02:14:39;;;;;;;11.53;3.97;;;7.20;79.90;;;;;;4859744;29;20212;-64
2022/04/14 02:17:05;;;;;;;11.03;5.00;;;7.20;80.00;;;;;;4859839;29;20550;-65
2022/04/14 02:19:31;;;;;;;12.30;4.60;;;7.20;80.00;;;;;;4873195;29;20188;-64
2022/04/14 02:22:00;;;;;;;12.60;5.50;;;7.10;80.10;;;;;;4877366;29;20250;-64
2022/04/14 02:24:26;;;;;;;13.10;5.87;;;7.10;80.40;;;;;;4878186;29;20707;-64
2022/04/14 02:26:53;;;;;;;11.10;4.27;;;7.00;80.60;;;;;;4878014;29;20533;-64
2022/04/14 02:29:19;;;;;;;10.40;4.90;;;6.90;80.90;;;;;;4878230;29;20187;-64
2022/04/14 02:31:45;;;;;;;10.13;4.33;;;6.80;81.00;;;;;;4877635;29;20761;-64
2022/04/14 02:34:11;;;;;;;10.83;4.17;;;6.80;81.10;;;;;;4878088;29;20291;-64
2022/04/14 02:36:37;;;;;;;16.40;4.87;;;6.80;81.20;;;;;;4877965;29;20193;-64
2022/04/14 02:39:03;;;;;;;8.37;3.93;;;6.70;81.40;;;;;;4877771;29;20187;-64
2022/04/14 02:41:29;;;;;;;11.20;4.27;;;6.60;81.60;;;;;;4877911;29;20178;-64
2022/04/14 02:43:55;;;;;;;11.37;4.10;;;6.60;82.00;;;;;;4877984;29;20213;-64
2022/04/14 02:46:20;;;;;;;11.00;4.40;;;6.50;82.20;;;;;;4877961;29;20232;-64
2022/04/14 02:48:46;;;;;;;8.13;3.77;;;6.50;82.50;;;;;;4877802;29;20551;-65
2022/04/14 02:51:12;;;;;;;12.47;4.40;;;6.50;82.60;;;;;;4877985;29;20650;-64
2022/04/14 02:53:37;;;;;;;11.03;4.30;;;6.50;82.70;;;;;;4877693;29;20198;-64
2022/04/14 02:56:05;;;;;;;11.63;3.93;;;6.40;82.70;;;;;;4877868;29;20579;-64
2022/04/14 02:58:32;;;;;;;8.17;3.90;;;6.40;82.80;;;;;;4877630;29;20198;-64
2022/04/14 03:00:58;;;;;;;11.00;4.13;;;6.30;83.00;;;;;;4878018;29;20202;-64
2022/04/14 03:03:24;;;;;;;9.93;4.03;;;6.30;83.40;;;;;;4877742;29;20209;-68
2022/04/14 03:05:50;;;;;;;7.73;3.90;;;6.30;83.30;;;;;;4877808;29;20188;-65
2022/04/14 03:08:17;;;;;;;7.90;3.50;;;6.40;83.30;;;;;;4877755;29;20185;-63
2022/04/14 03:10:43;;;;;;;9.37;3.77;;;6.30;83.50;;;;;;4877535;29;20183;-65
2022/04/14 03:13:09;;;;;;;12.67;4.53;;;6.30;83.80;;;;;;4877740;29;20196;-63
2022/04/14 03:15:34;;;;;;;10.30;4.10;;;6.30;83.80;;;;;;4878100;29;20194;-63
2022/04/14 03:18:00;;;;;;;9.13;4.40;;;6.30;84.00;;;;;;4877476;29;20516;-63
2022/04/14 03:20:26;;;;;;;9.23;4.27;;;6.20;84.30;;;;;;4877366;29;20547;-64
2022/04/14 03:22:52;;;;;;;12.90;4.80;;;6.10;84.50;;;;;;4877389;29;20182;-63
2022/04/14 03:25:17;;;;;;;11.17;4.70;;;6.10;84.80;;;;;;4877761;29;20229;-64
2022/04/14 03:27:43;;;;;;;7.20;3.97;;;6.10;85.00;;;;;;4877471;29;20225;-66
2022/04/14 03:30:13;;;;;;;10.53;4.40;;;6.10;85.20;;;;;;4877252;29;20186;-64
2022/04/14 03:32:45;;;;;;;8.90;4.37;;;6.10;85.30;;;;;;4878737;29;20239;-64
2022/04/14 03:35:12;;;;;;;8.20;4.13;;;6.10;85.10;;;;;;4880581;29;20188;-64
2022/04/14 03:37:39;;;;;;;8.77;3.87;;;6.10;85.10;;;;;;4880640;29;20190;-64
2022/04/14 03:40:06;;;;;;;12.27;4.27;;;6.10;85.10;;;;;;4880746;29;20277;-64
2022/04/14 03:42:32;;;;;;;14.43;4.77;;;6.10;85.40;;;;;;4880371;29;20237;-64
2022/04/14 03:44:58;;;;;;;8.07;3.93;;;6.10;85.40;;;;;;4880646;29;20302;-64
2022/04/14 03:47:27;;;;;;;10.60;4.43;;;6.10;85.30;;;;;;4880121;29;20197;-65
2022/04/14 03:49:53;;;;;;;13.43;4.23;;;6.10;85.50;;;;;;4880528;29;20630;-65
2022/04/14 03:52:19;;;;;;;11.87;5.00;;;6.10;85.60;;;;;;4863504;29;20191;-65
2022/04/14 03:54:45;;;;;;;10.53;4.10;;;6.10;85.70;;;;;;4879616;29;20193;-65
2022/04/14 03:57:11;;;;;;;12.50;4.43;;;6.10;85.70;;;;;;4879733;29;20667;-64
2022/04/14 03:59:37;;;;;;;9.40;3.83;;;6.10;85.70;;;;;;4879814;29;20196;-64
2022/04/14 04:02:04;;;;;;;8.57;4.37;;;6.10;85.80;;;;;;4863310;29;20226;-63
2022/04/14 04:04:31;;;;;;;10.13;4.23;;;6.10;85.80;;;;;;4879709;29;20234;-64
2022/04/14 04:06:57;;;;;;;9.07;3.90;;;6.20;86.00;;;;;;4879709;29;20209;-64
2022/04/14 04:09:23;;;;;;;8.93;3.80;;;6.20;85.80;;;;;;4879887;29;20210;-64
2022/04/14 04:11:50;;;;;;;10.73;5.00;;;6.20;85.90;;;;;;4879599;29;20537;-63
2022/04/14 04:14:16;;;;;;;8.17;3.90;;;6.20;86.00;;;;;;4879259;29;20196;-64
2022/04/14 04:16:42;;;;;;;13.40;4.30;;;6.20;86.10;;;;;;4878845;29;20550;-65
2022/04/14 04:19:08;;;;;;;13.37;4.60;;;6.30;86.00;;;;;;4879183;29;20535;-64
2022/04/14 04:21:34;;;;;;;14.03;4.90;;;6.30;86.20;;;;;;4879363;29;20265;-65
2022/04/14 04:24:00;;;;;;;11.17;5.23;;;6.30;86.30;;;;;;4879414;29;20232;-66
2022/04/14 04:26:26;;;;;;;13.70;5.67;;;6.30;86.20;;;;;;4879074;29;20232;-66
2022/04/14 04:28:51;;;;;;;10.33;4.63;;;6.30;86.30;;;;;;4878232;29;20187;-65
2022/04/14 04:31:17;;;;;;;21.10;6.00;;;6.30;86.00;;;;;;4878816;29;20183;-66
2022/04/14 04:33:43;;;;;;;12.20;5.33;;;6.40;86.20;;;;;;4878734;29;20185;-65
2022/04/14 04:36:09;;;;;;;14.23;5.10;;;6.50;86.00;;;;;;4879372;29;20187;-65
2022/04/14 04:38:34;;;;;;;9.83;4.37;;;6.60;86.00;;;;;;4878802;29;20238;-66
2022/04/14 04:41:00;;;;;;;8.93;4.10;;;6.70;85.30;;;;;;4879097;29;20265;-66
2022/04/14 04:43:26;;;;;;;11.97;5.00;;;6.80;84.50;;;;;;4877870;29;20608;-65
2022/04/14 04:45:52;;;;;;;14.57;5.03;;;6.90;84.40;;;;;;4878148;29;20316;-66
2022/04/14 04:48:17;;;;;;;11.93;4.97;;;7.10;83.60;;;;;;4878125;29;20637;-66
2022/04/14 04:50:43;;;;;;;11.70;4.77;;;7.20;83.10;;;;;;4878035;29;20629;-65
2022/04/14 04:53:09;;;;;;;12.30;5.53;;;7.40;82.70;;;;;;4878030;29;20221;-64
2022/04/14 04:55:35;;;;;;;12.47;4.53;;;7.50;82.50;;;;;;4878314;29;20263;-62
2022/04/14 04:58:01;;;;;;;15.60;5.83;;;7.50;82.40;;;;;;4879030;29;20203;-62
2022/04/14 05:00:26;;;;;;;10.63;4.73;;;7.60;82.10;;;;;;4877932;29;20216;-63
2022/04/14 05:02:52;;;;;;;16.07;10.37;;;7.60;81.70;;;;;;4878023;29;20203;-61
2022/04/14 05:05:22;;;;;;;11.73;5.00;;;7.70;81.80;;;;;;4878460;29;20567;-63
2022/04/14 05:07:47;;;;;;;13.60;6.27;;;7.70;81.70;;;;;;4877620;29;20196;-61
2022/04/14 05:10:13;;;;;;;11.97;4.90;;;7.70;81.80;;;;;;4878289;29;20188;-61
2022/04/14 05:12:40;;;;;;;8.90;4.57;;;7.80;82.10;;;;;;4877996;29;20513;-61
2022/04/14 05:15:06;;;;;;;12.50;5.30;;;7.80;82.10;;;;;;4878379;29;20184;-62
2022/04/14 05:17:31;;;;;;;15.90;6.07;;;7.80;82.10;;;;;;4877874;29;20192;-64
2022/04/14 05:19:57;;;;;;;12.30;4.60;;;7.80;82.00;;;;;;4876197;29;20185;-65
2022/04/14 05:22:23;;;;;;;14.17;4.90;;;7.80;81.40;;;;;;4854203;29;20243;-67
2022/04/14 05:24:49;;;;;;;11.17;4.43;;;7.80;81.40;;;;;;4863679;29;20227;-67
2022/04/14 05:27:14;;;;;;;12.17;4.87;;;7.90;81.00;;;;;;4868910;29;20205;-67
2022/04/14 05:29:40;;;;;;;18.23;6.43;;;7.90;80.90;;;;;;4874765;29;20272;-67
2022/04/14 05:32:06;;;;;;;12.57;4.83;;;8.00;81.00;;;;;;4872350;29;20188;-68
2022/04/14 05:34:33;;;;;;;12.70;5.83;;;8.00;81.00;;;;;;4868870;29;20227;-67
2022/04/14 05:36:58;;;;;;;18.43;5.63;;;8.00;80.80;;;;;;4869380;29;20649;-63
2022/04/14 05:39:24;;;;;;;12.70;5.83;;;8.10;80.60;;;;;;4881305;29;20237;-61
2022/04/14 05:41:50;;;;;;;14.60;6.10;;;8.10;80.60;;;;;;4877684;29;20644;-64
2022/04/14 05:44:17;;;;;;;14.23;6.57;;;8.10;80.90;;;;;;4875870;29;20208;-61
2022/04/14 05:46:42;;;;;;;16.83;5.43;;;8.20;80.70;;;;;;4868333;29;20551;-59
2022/04/14 05:49:08;;;;;;;10.77;5.77;;;8.10;80.60;;;;;;4869996;29;20199;-66
2022/04/14 05:51:34;;;;;;;16.17;5.93;;;8.10;80.60;;;;;;4871032;29;20219;-65
2022/04/14 05:54:00;;;;;;;11.47;5.47;;;8.00;81.00;;;;;;4876403;29;20200;-66
2022/04/14 05:56:25;;;;;;;13.47;5.63;;;8.10;81.10;;;;;;4876968;29;20632;-66
2022/04/14 05:58:53;;;;;;;11.43;5.47;;;8.20;80.60;;;;;;4875648;29;20211;-67
2022/04/14 06:01:19;;;;;;;12.90;6.07;;;8.30;80.70;;;;;;4876153;29;20196;-68
2022/04/14 06:03:45;;;;;;;15.20;5.60;;;8.40;81.00;;;;;;4876419;29;20216;-67
2022/04/14 06:06:13;;;;;;;14.67;4.97;;;8.40;80.70;;;;;;4876809;29;20288;-67
2022/04/14 06:08:39;;;;;;;16.33;5.17;;;8.40;80.30;;;;;;4876055;29;20199;-67
2022/04/14 06:11:05;;;;;;;14.07;4.47;;;8.50;80.00;;;;;;4876817;29;20275;-66
2022/04/14 06:13:31;;;;;;;12.40;5.03;;;8.50;79.80;;;;;;4876837;29;20271;-66
2022/04/14 06:15:57;;;;;;;14.90;5.23;;;8.70;79.80;;;;;;4877171;29;20604;-68
2022/04/14 06:18:23;;;;;;;12.80;5.20;;;8.80;79.40;;;;;;4877278;29;20274;-67
2022/04/14 06:20:50;;;;;;;16.77;4.90;;;9.00;78.90;;;;;;4876265;29;20196;-67
2022/04/14 06:23:16;;;;;;;10.67;4.50;;;9.10;76.80;;;;;;4875895;29;20209;-66
2022/04/14 06:25:45;;;;;;;9.67;4.13;;;9.10;76.80;;;;;;4864097;29;20278;-66
2022/04/14 06:28:11;;;;;;;12.30;4.60;;;9.10;76.30;;;;;;4877105;29;20629;-66
2022/04/14 06:30:36;;;;;;;13.93;4.50;;;9.20;77.20;;;;;;4871246;29;20194;-66
2022/04/14 06:33:04;;;;;;;12.83;5.30;;;9.30;76.60;;;;;;4869965;29;20223;-68
2022/04/14 06:35:30;;;;;;;14.67;5.77;;;9.40;77.00;;;;;;4863681;29;20190;-68
2022/04/14 06:37:57;;;;;;;11.67;5.77;;;9.60;77.60;;;;;;4875773;29;20196;-65
2022/04/14 06:40:23;;;;;;;25.07;9.03;;;9.80;77.20;;;;;;4876968;29;20694;-66
2022/04/14 06:42:49;;;;;;;15.23;7.70;;;9.90;76.40;;;;;;4876277;29;20255;-68
2022/04/14 06:45:16;;;;;;;16.10;6.50;;;10.00;76.50;;;;;;4876548;29;20227;-67
2022/04/14 06:47:42;;;;;;;15.10;6.37;;;10.20;73.90;;;;;;4876355;29;20286;-67
2022/04/14 06:50:08;;;;;;;30.90;12.83;;;10.20;73.70;;;;;;4876534;29;20553;-68
2022/04/14 06:52:34;;;;;;;10.07;4.13;;;10.40;73.80;;;;;;4858912;29;20218;-66
2022/04/14 06:55:00;;;;;;;12.70;5.27;;;10.40;72.00;;;;;;4876105;29;20696;-68
2022/04/14 06:57:26;;;;;;;10.37;4.10;;;10.40;71.70;;;;;;4876720;29;20218;-67
2022/04/14 06:59:52;;;;;;;12.13;4.90;;;10.60;69.10;;;;;;4876741;29;20184;-67
2022/04/14 07:02:17;;;;;;;13.73;4.13;;;10.60;66.30;;;;;;4877358;29;20217;-66
2022/04/14 07:04:43;;;;;;;7.93;3.40;;;10.80;64.80;;;;;;4860414;29;20225;-67
2022/04/14 07:07:09;;;;;;;12.13;3.60;;;10.80;63.90;;;;;;4874906;29;20265;-65
2022/04/14 07:09:36;;;;;;;6.73;2.80;;;10.90;64.00;;;;;;4859883;29;20287;-66
2022/04/14 07:12:02;;;;;;;5.87;2.70;;;11.10;64.10;;;;;;4871268;29;20283;-67
2022/04/14 07:14:28;;;;;;;8.57;3.03;;;11.30;62.60;;;;;;4879841;29;20904;-66
2022/04/14 07:16:55;;;;;;;7.83;3.20;;;11.50;62.20;;;;;;4880051;29;20264;-66
2022/04/14 07:19:21;;;;;;;6.60;2.90;;;11.60;61.40;;;;;;4880056;29;20197;-66
2022/04/14 07:21:47;;;;;;;13.53;3.43;;;11.60;60.90;;;;;;4878936;29;20194;-67
2022/04/14 07:24:13;;;;;;;9.87;2.80;;;11.80;61.10;;;;;;4879193;29;20221;-67
2022/04/14 07:26:39;;;;;;;8.90;3.87;;;11.90;60.90;;;;;;4879471;29;20650;-67
2022/04/14 07:29:05;;;;;;;9.67;3.50;;;12.10;61.00;;;;;;4879610;29;20194;-67
2022/04/14 07:31:31;;;;;;;8.90;3.60;;;12.40;59.90;;;;;;4879548;29;20191;-70
2022/04/14 07:34:00;;;;;;;7.17;3.33;;;12.40;59.80;;;;;;4875243;29;20592;-71
2022/04/14 07:36:26;;;;;;;19.70;4.60;;;12.50;59.50;;;;;;4871715;29;20206;-72
2022/04/14 07:38:52;;;;;;;17.07;4.47;;;12.60;60.20;;;;;;4865909;29;20549;-70
2022/04/14 07:41:18;;;;;;;7.83;3.33;;;12.80;60.30;;;;;;4879095;29;20201;-72
2022/04/14 07:43:44;;;;;;;14.17;4.10;;;12.80;60.40;;;;;;4878918;29;20179;-70
2022/04/14 07:46:10;;;;;;;12.17;4.03;;;13.00;60.80;;;;;;4862314;29;20643;-72
2022/04/14 07:48:36;;;;;;;9.83;3.87;;;13.30;61.10;;;;;;4877387;29;20533;-70
2022/04/14 07:51:02;;;;;;;7.97;3.63;;;13.40;60.00;;;;;;4878465;29;20413;-70
2022/04/14 07:53:28;;;;;;;8.17;3.63;;;13.40;59.40;;;;;;4878118;29;20184;-74
2022/04/14 07:55:54;;;;;;;14.13;3.57;;;13.30;59.50;;;;;;4873574;29;20233;-72
2022/04/14 07:58:20;;;;;;;8.93;3.73;;;13.40;59.20;;;;;;4859476;29;20185;-72
2022/04/14 08:00:47;;;;;;;7.23;3.27;;;13.00;58.60;;;;;;4873036;29;20289;-71
2022/04/14 08:03:13;;;;;;;10.60;3.87;;;13.10;59.00;;;;;;4859569;29;20184;-72
2022/04/14 08:05:41;;;;;;;15.27;4.07;;;13.40;59.50;;;;;;4858451;29;20302;-72
2022/04/14 08:08:13;;;;;;;8.43;2.90;;;13.50;59.90;;;;;;4853739;29;20201;-71
2022/04/14 08:10:46;;;;;;;13.60;3.47;;;13.60;58.00;;;;;;4858628;29;20614;-71
2022/04/14 08:13:13;;;;;;;16.80;3.67;;;13.70;58.00;;;;;;4860514;29;20287;-72
2022/04/14 08:15:39;;;;;;;10.00;3.30;;;13.90;57.30;;;;;;4860693;29;20189;-69
2022/04/14 08:18:06;;;;;;;10.07;3.70;;;13.70;56.60;;;;;;4860600;29;20536;-72
2022/04/14 08:20:34;;;;;;;9.43;4.07;;;13.70;56.30;;;;;;4860320;29;20297;-68
2022/04/14 08:23:01;;;;;;;12.80;2.77;;;13.90;56.30;;;;;;4859072;29;20653;-71
2022/04/14 08:25:35;;;;;;;11.07;2.77;;;14.10;55.90;;;;;;4860285;29;20295;-72
2022/04/14 08:28:04;;;;;;;7.13;3.00;;;14.00;55.50;;;;;;4860965;29;20189;-72
2022/04/14 08:30:31;;;;;;;9.40;3.17;;;14.20;56.00;;;;;;4860417;29;20314;-71
2022/04/14 08:33:00;;;;;;;8.33;3.20;;;14.30;54.70;;;;;;4874739;29;20267;-72
2022/04/14 08:35:26;;;;;;;4.97;2.40;;;14.40;54.60;;;;;;4859736;29;20188;-71
2022/04/14 08:37:52;;;;;;;9.20;2.77;;;14.40;53.50;;;;;;4860039;29;20181;-72
2022/04/14 08:40:21;;;;;;;11.13;2.97;;;14.40;53.80;;;;;;4846085;29;20189;-72
2022/04/14 08:42:58;;;;;;;3.83;1.90;;;14.30;53.60;;;;;;4840952;29;20185;-71
2022/04/14 08:45:26;;;;;;;4.63;2.53;;;13.90;53.40;;;;;;4841585;29;20611;-73
2022/04/14 08:47:53;;;;;;;8.67;3.47;;;13.80;54.20;;;;;;4841430;29;20213;-73
2022/04/14 08:50:19;;;;;;;6.70;3.03;;;14.00;55.00;;;;;;4841641;29;20224;-71
2022/04/14 08:52:46;;;;;;;10.13;4.23;;;14.20;54.20;;;;;;4840809;29;20649;-72
2022/04/14 08:55:14;;;;;;;17.80;3.87;;;14.30;53.90;;;;;;4845720;29;20299;-71
2022/04/14 08:57:43;;;;;;;8.60;2.97;;;14.30;54.20;;;;;;4857583;29;20226;-74
2022/04/14 09:00:11;;;;;;;7.73;2.70;;;14.40;53.80;;;;;;4842397;29;20533;-72
2022/04/14 09:02:38;;;;;;;6.23;2.73;;;14.70;53.80;;;;;;4858577;29;20622;-73
2022/04/14 09:05:05;;;;;;;11.27;3.77;;;14.80;53.10;;;;;;4858952;29;20216;-72
2022/04/14 09:07:31;;;;;;;6.83;2.27;;;14.60;52.80;;;;;;4856922;29;20189;-70
2022/04/14 09:09:57;;;;;;;11.93;2.63;;;14.70;53.00;;;;;;4857967;29;20177;-72
2022/04/14 09:12:23;;;;;;;13.87;3.13;;;14.70;53.50;;;;;;4858764;29;20204;-71
2022/04/14 09:14:49;;;;;;;5.37;2.30;;;14.80;53.90;;;;;;4841581;29;20229;-74
2022/04/14 09:17:15;;;;;;;6.97;3.03;;;14.90;53.30;;;;;;4858238;29;20213;-73
2022/04/14 09:19:41;;;;;;;4.47;2.00;;;15.00;53.40;;;;;;4873633;29;20194;-73
2022/04/14 09:22:14;;;;;;;6.77;2.47;;;15.10;52.40;;;;;;4876736;29;20242;-75
2022/04/14 09:24:44;;;;;;;6.33;2.40;;;15.00;51.90;;;;;;4876595;29;20215;-73
2022/04/14 09:27:23;;;;;;;6.03;2.90;;;15.00;52.10;;;;;;4877447;29;20224;-73
2022/04/14 09:29:49;;;;;;;10.67;3.10;;;14.90;51.80;;;;;;4876857;29;20230;-74
2022/04/14 09:32:36;;;;;;;8.77;2.57;;;14.80;51.00;;;;;;4877311;29;20172;-75
2022/04/14 09:35:06;;;;;;;9.43;2.40;;;14.80;50.60;;;;;;4877582;29;20270;-73
2022/04/14 09:37:33;;;;;;;3.50;2.10;;;14.60;50.80;;;;;;4877260;29;20187;-71
2022/04/14 09:40:01;;;;;;;9.67;2.93;;;14.60;50.80;;;;;;4876759;29;20236;-73
2022/04/14 09:42:32;;;;;;;4.53;2.40;;;14.60;49.90;;;;;;4876686;29;20211;-71
2022/04/14 09:45:20;;;;;;;9.27;2.63;;;14.60;50.30;;;;;;4876985;29;20657;-74
2022/04/14 09:47:48;;;;;;;9.27;3.10;;;14.90;50.20;;;;;;4875931;29;20518;-74
2022/04/14 09:50:24;;;;;;;9.13;2.80;;;15.20;49.80;;;;;;4876527;29;20187;-74
2022/04/14 09:53:07;;;;;;;9.50;2.67;;;15.10;49.70;;;;;;4876542;29;20198;-75
2022/04/14 09:55:40;;;;;;;9.13;2.13;;;14.80;49.90;;;;;;4828510;29;1427272;-68
2022/04/14 09:58:15;;;;;;;5.93;2.00;;;14.90;49.80;;;;;;4876884;29;20265;-74
2022/04/14 10:00:49;;;;;;;8.87;2.53;;;15.10;49.20;;;;;;4876894;29;20184;-72
2022/04/14 10:03:15;;;;;;;6.20;2.57;;;15.10;49.20;;;;;;4877612;29;20171;-75
2022/04/14 10:05:41;;;;;;;5.23;2.23;;;15.00;49.00;;;;;;4877358;29;20365;-74
2022/04/14 10:08:08;;;;;;;4.30;2.13;;;14.90;48.90;;;;;;4877289;29;20200;-73
2022/04/14 10:10:38;;;;;;;5.27;2.47;;;15.10;48.70;;;;;;4860385;29;20193;-72
2022/04/14 10:13:09;;;;;;;4.47;1.90;;;15.50;48.60;;;;;;4878001;29;20188;-74
2022/04/14 10:15:46;;;;;;;7.17;1.93;;;15.50;47.80;;;;;;4876843;29;20196;-73
2022/04/14 10:18:14;;;;;;;6.60;2.10;;;15.10;48.00;;;;;;4877555;29;20172;-74
2022/04/14 10:20:44;;;;;;;7.33;2.40;;;15.20;48.50;;;;;;4876929;29;20175;-73
2022/04/14 10:23:12;;;;;;;11.10;2.50;;;15.40;48.60;;;;;;4877035;29;20185;-74
2022/04/14 10:25:38;;;;;;;8.43;1.70;;;15.90;48.00;;;;;;4860230;29;20328;-71
2022/04/14 10:28:11;;;;;;;5.30;1.97;;;16.00;47.40;;;;;;4876802;29;20667;-74
2022/04/14 10:30:37;;;;;;;7.73;2.70;;;16.10;46.80;;;;;;4862004;29;20188;-75
2022/04/14 10:33:03;;;;;;;8.20;2.50;;;16.30;47.70;;;;;;4877366;29;20256;-74
2022/04/14 10:35:31;;;;;;;11.23;2.77;;;16.70;47.60;;;;;;4860475;29;20728;-75
2022/04/14 10:38:19;;;;;;;8.43;2.67;;;17.10;47.30;;;;;;4876747;29;20176;-74
2022/04/14 10:40:53;;;;;;;24.57;4.97;;;17.00;45.30;;;;;;4876565;29;20180;-73
2022/04/14 10:43:22;;;;;;;5.97;2.10;;;17.20;45.60;;;;;;4880266;29;20506;-72
2022/04/14 10:45:56;;;;;;;5.17;2.03;;;17.20;45.00;;;;;;4879733;29;20453;-75
2022/04/14 10:48:33;;;;;;;7.87;2.53;;;17.40;44.10;;;;;;4880494;29;20192;-72
2022/04/14 10:51:28;;;;;;;14.60;2.67;;;17.10;44.10;;;;;;4881125;29;20180;-73
2022/04/14 10:54:06;;;;;;;6.27;2.10;;;17.00;44.90;;;;;;4879934;29;20180;-73
2022/04/14 10:56:43;;;;;;;9.67;2.67;;;17.30;44.40;;;;;;4880435;29;20232;-75
2022/04/14 10:59:14;;;;;;;10.30;3.00;;;17.20;45.00;;;;;;4878820;29;20225;-72
2022/04/14 11:01:45;;;;;;;7.93;2.20;;;17.10;44.00;;;;;;4879102;29;20192;-64
2022/04/14 11:04:24;;;;;;;5.63;2.03;;;16.70;44.10;;;;;;4870959;29;20541;-68
2022/04/14 11:07:23;;;;;;;8.73;2.93;;;16.70;43.20;;;;;;4879764;29;20189;-63
2022/04/14 11:09:59;;;;;;;7.13;2.30;;;16.80;43.50;;;;;;4878327;29;20192;-69
2022/04/14 11:12:40;;;;;;;6.17;2.00;;;16.90;43.40;;;;;;4878305;29;20188;-66
2022/04/14 11:15:08;;;;;;;5.80;1.93;;;17.00;42.10;;;;;;4878869;29;20188;-62
2022/04/14 11:17:48;;;;;;;6.03;2.33;;;17.00;42.60;;;;;;4878513;29;20319;-62
2022/04/14 11:20:48;;;;;;;5.77;1.80;;;17.10;43.00;;;;;;4878276;29;20275;-64
2022/04/14 11:23:24;;;;;;;11.30;3.80;;;17.20;42.70;;;;;;4879965;29;20327;-64
2022/04/14 11:26:08;;;;;;;3.67;2.03;;;17.40;42.00;;;;;;4879293;29;20276;-62
2022/04/14 11:28:35;;;;;;;5.57;2.30;;;17.50;40.80;;;;;;4878057;29;20190;-62
2022/04/14 11:31:21;;;;;;;15.80;2.60;;;17.10;41.40;;;;;;4850499;29;20203;-65
2022/04/14 11:33:53;;;;;;;5.10;2.70;;;17.50;42.10;;;;;;4859456;29;20184;-63
2022/04/14 11:36:25;;;;;;;9.73;3.33;;;17.90;41.60;;;;;;4860966;29;20212;-65
2022/04/14 11:38:52;;;;;;;8.83;2.87;;;18.60;40.80;;;;;;4894300;29;20270;-62
2022/04/14 11:41:51;;;;;;;13.00;3.30;;;18.80;39.70;;;;;;4898485;29;20176;-65
2022/04/14 11:44:20;;;;;;;7.93;2.37;;;18.90;38.90;;;;;;4883991;29;20311;-64
2022/04/14 11:46:54;;;;;;;8.03;2.20;;;18.70;38.40;;;;;;4881389;29;20275;-64
2022/04/14 11:49:22;;;;;;;4.87;2.73;;;18.60;38.20;;;;;;4898304;29;20183;-62
2022/04/14 11:51:52;;;;;;;5.15;2.05;;;18.70;39.10;;;;;;4898136;29;20186;-64
2022/04/14 11:54:27;;;;;;;10.50;3.13;;;18.70;37.60;;;;;;4894577;29;20191;-65
2022/04/14 11:57:18;;;;;;;13.05;2.88;;;19.30;38.30;;;;;;4877674;29;20236;-61
2022/04/14 11:59:46;;;;;;;5.22;2.38;;;19.70;37.70;;;;;;4876759;29;20185;-62
2022/04/14 12:02:26;;;;;;;14.77;2.53;;;19.70;35.50;;;;;;4844600;29;20196;-63
2022/04/14 12:04:54;;;;;;;8.65;2.13;;;19.50;36.00;;;;;;4843899;29;20212;-62
2022/04/14 12:07:22;;;;;;;4.18;1.73;;;20.00;36.80;;;;;;4860492;29;20192;-64
2022/04/14 12:09:58;;;;;;;4.75;2.45;;;20.20;35.50;;;;;;4859843;29;20202;-62
2022/04/14 12:12:24;;;;;;;7.43;3.58;;;20.60;34.70;;;;;;4858907;29;20291;-72
2022/04/14 12:14:52;;;;;;;6.15;2.58;;;21.80;34.80;;;;;;4859891;29;20812;-73
2022/04/14 12:17:22;;;;;;;9.80;3.10;;;22.10;33.30;;;;;;4859790;29;20193;-71
2022/04/14 12:19:54;;;;;;;6.50;2.80;;;21.60;33.80;;;;;;4875524;29;20196;-73
2022/04/14 12:22:20;;;;;;;5.45;2.20;;;20.80;34.40;;;;;;4870002;29;20216;-70
2022/04/14 12:24:52;;;;;;;5.45;2.15;;;20.70;35.40;;;;;;4851143;29;20231;-72
2022/04/14 12:27:34;;;;;;;6.72;2.47;;;20.50;34.90;;;;;;4876923;29;20219;-70
2022/04/14 12:30:09;;;;;;;13.45;3.38;;;20.40;35.50;;;;;;4864511;29;20276;-73
2022/04/14 12:32:35;;;;;;;10.30;3.42;;;20.10;35.80;;;;;;4857226;29;20203;-71
2022/04/14 12:35:03;;;;;;;9.65;2.78;;;20.20;36.70;;;;;;4872752;29;20207;-63
2022/04/14 12:37:40;;;;;;;5.78;2.63;;;20.00;34.90;;;;;;4877162;29;20247;-62
2022/04/14 12:40:17;;;;;;;6.90;2.90;;;20.10;34.80;;;;;;4871930;29;20205;-61
2022/04/14 12:42:44;;;;;;;6.63;2.60;;;20.80;35.20;;;;;;4872359;29;20204;-67
2022/04/14 12:45:15;;;;;;;15.15;3.85;;;20.80;34.90;;;;;;4865170;29;20216;-59
2022/04/14 12:47:46;;;;;;;9.88;2.92;;;20.80;34.60;;;;;;4877452;29;20220;-62
2022/04/14 12:50:18;;;;;;;5.45;3.10;;;20.60;34.40;;;;;;4876593;29;20192;-63